createdAt,value
2018-04-27T00:00:23.569Z,7.70
2018-04-27T00:01:29.493Z,5.82
2018-04-27T00:02:36.483Z,7.60
2018-04-27T00:03:42.756Z,6.00
2018-04-27T00:04:48.740Z,6.12
2018-04-27T00:05:58.575Z,5.70
2018-04-27T00:07:04.772Z,7.57
2018-04-27T00:08:10.970Z,6.25
2018-04-27T00:09:17.383Z,6.70
2018-04-27T00:10:24.454Z,7.10
2018-04-27T00:11:33.306Z,5.07
2018-04-27T00:12:39.597Z,7.25
2018-04-27T00:13:45.676Z,6.62
2018-04-27T00:14:52.508Z,7.05
2018-04-27T00:15:58.720Z,6.65
2018-04-27T00:17:05.001Z,5.93
2018-04-27T00:18:11.290Z,7.00
2018-04-27T00:19:17.287Z,7.18
2018-04-27T00:20:23.730Z,5.35
2018-04-27T00:21:29.994Z,9.10
2018-04-27T00:22:36.193Z,6.65
2018-04-27T00:23:53.022Z,6.25
2018-04-27T00:24:59.282Z,5.75
2018-04-27T00:26:05.154Z,7.95
2018-04-27T00:27:11.367Z,7.45
2018-04-27T00:28:17.630Z,6.15
2018-04-27T00:29:23.903Z,6.20
2018-04-27T00:30:30.152Z,8.07
2018-04-27T00:31:36.418Z,6.43
2018-04-27T00:32:42.606Z,7.93
2018-04-27T00:33:48.864Z,6.12
2018-04-27T00:34:54.911Z,6.45
2018-04-27T00:36:01.249Z,5.50
2018-04-27T00:37:08.248Z,8.05
2018-04-27T00:38:14.291Z,7.45
2018-04-27T00:39:21.900Z,5.50
2018-04-27T00:40:28.262Z,8.95
2018-04-27T00:41:36.415Z,5.72
2018-04-27T00:42:43.908Z,8.50
2018-04-27T00:43:50.092Z,6.95
2018-04-27T00:44:56.364Z,7.32
2018-04-27T00:46:02.556Z,9.48
2018-04-27T00:47:08.795Z,6.20
2018-04-27T00:48:16.642Z,6.57
2018-04-27T00:49:24.888Z,8.45
2018-04-27T00:50:31.102Z,6.97
2018-04-27T00:51:37.383Z,7.28
2018-04-27T00:52:54.702Z,8.10
2018-04-27T00:54:01.415Z,20.48
2018-04-27T00:55:08.322Z,18.75
2018-04-27T00:56:14.638Z,13.23
2018-04-27T00:57:20.944Z,12.68
2018-04-27T00:58:27.162Z,13.15
2018-04-27T00:59:33.461Z,9.27
2018-04-27T01:00:39.328Z,8.30
2018-04-27T01:01:44.514Z,7.55
2018-04-27T01:02:50.567Z,8.15
2018-04-27T01:03:56.977Z,9.65
2018-04-27T01:05:03.252Z,9.27
2018-04-27T01:06:09.472Z,11.60
2018-04-27T01:07:15.699Z,11.43
2018-04-27T01:08:21.910Z,11.48
2018-04-27T01:09:28.147Z,8.27
2018-04-27T01:10:34.457Z,8.18
2018-04-27T01:11:40.437Z,11.35
2018-04-27T01:12:49.326Z,7.50
2018-04-27T01:13:56.651Z,9.55
2018-04-27T01:15:02.825Z,9.00
2018-04-27T01:16:09.624Z,8.23
2018-04-27T01:17:15.895Z,9.10
2018-04-27T01:18:22.107Z,9.50
2018-04-27T01:19:28.341Z,9.25
2018-04-27T01:20:33.903Z,7.62
2018-04-27T01:21:39.861Z,8.00
2018-04-27T01:22:46.144Z,8.50
2018-04-27T01:23:52.404Z,7.28
2018-04-27T01:24:58.284Z,8.50
2018-04-27T01:26:04.650Z,8.70
2018-04-27T01:27:10.904Z,8.25
2018-04-27T01:28:17.205Z,8.82
2018-04-27T01:29:24.458Z,8.27
2018-04-27T01:30:30.718Z,7.30
2018-04-27T01:31:36.539Z,8.20
2018-04-27T01:32:42.904Z,7.40
2018-04-27T01:33:49.203Z,8.60
2018-04-27T01:34:56.004Z,7.90
2018-04-27T01:36:02.065Z,11.85
2018-04-27T01:37:08.283Z,11.10
2018-04-27T01:38:19.680Z,7.90
2018-04-27T01:39:25.956Z,10.70
2018-04-27T01:40:32.279Z,9.65
2018-04-27T01:41:39.010Z,8.98
2018-04-27T01:42:52.895Z,7.32
2018-04-27T01:44:00.858Z,7.60
2018-04-27T01:45:08.011Z,10.57
2018-04-27T01:46:15.944Z,10.52
2018-04-27T01:47:22.173Z,10.73
2018-04-27T01:48:29.423Z,8.75
2018-04-27T01:49:35.773Z,10.95
2018-04-27T01:50:42.161Z,10.02
2018-04-27T01:51:48.422Z,11.82
2018-04-27T01:52:56.039Z,10.30
2018-04-27T01:54:01.933Z,13.85
2018-04-27T01:55:09.047Z,9.27
2018-04-27T01:56:15.330Z,8.98
2018-04-27T01:57:21.523Z,11.10
2018-04-27T01:58:27.775Z,14.18
2018-04-27T01:59:36.904Z,11.30
2018-04-27T02:00:43.283Z,10.68
2018-04-27T02:01:49.222Z,13.25
2018-04-27T02:02:55.457Z,12.40
2018-04-27T02:04:01.766Z,13.50
2018-04-27T02:05:08.082Z,12.82
2018-04-27T02:06:14.390Z,13.35
2018-04-27T02:07:20.701Z,11.93
2018-04-27T02:08:27.006Z,11.05
2018-04-27T02:09:33.220Z,13.40
2018-04-27T02:10:39.204Z,15.45
2018-04-27T02:11:45.504Z,9.85
2018-04-27T02:12:52.017Z,11.55
2018-04-27T02:13:59.143Z,11.98
2018-04-27T02:15:07.423Z,10.43
2018-04-27T02:16:14.719Z,11.85
2018-04-27T02:17:20.963Z,15.77
2018-04-27T02:18:27.218Z,13.02
2018-04-27T02:19:33.533Z,17.08
2018-04-27T02:20:39.803Z,11.57
2018-04-27T02:21:46.023Z,15.82
2018-04-27T02:22:52.104Z,13.98
2018-04-27T02:23:58.423Z,12.10
2018-04-27T02:25:04.681Z,14.30
2018-04-27T02:26:10.970Z,13.80
2018-04-27T02:27:17.742Z,16.62
2018-04-27T02:28:24.003Z,15.07
2018-04-27T02:29:30.299Z,12.63
2018-04-27T02:30:36.553Z,15.18
2018-04-27T02:31:42.886Z,16.12
2018-04-27T02:32:49.990Z,18.45
2018-04-27T02:33:57.019Z,13.98
2018-04-27T02:35:03.211Z,15.05
2018-04-27T02:36:09.567Z,15.93
2018-04-27T02:37:15.506Z,15.57
2018-04-27T02:38:21.717Z,17.48
2018-04-27T02:39:28.041Z,17.30
2018-04-27T02:40:34.373Z,17.95
2018-04-27T02:41:40.584Z,16.05
2018-04-27T02:42:46.879Z,16.98
2018-04-27T02:43:53.159Z,15.23
2018-04-27T02:44:59.419Z,16.30
2018-04-27T02:46:06.169Z,12.20
2018-04-27T02:47:17.627Z,13.30
2018-04-27T02:48:23.863Z,15.07
2018-04-27T02:49:30.171Z,12.90
2018-04-27T02:50:36.610Z,15.77
2018-04-27T02:51:43.336Z,19.98
2018-04-27T02:52:49.603Z,15.13
2018-04-27T02:53:57.499Z,16.05
2018-04-27T02:55:03.814Z,15.27
2018-04-27T02:56:10.107Z,12.68
2018-04-27T02:57:17.235Z,17.05
2018-04-27T02:58:23.579Z,16.87
2018-04-27T02:59:29.820Z,15.20
2018-04-27T03:00:36.159Z,15.70
2018-04-27T03:01:42.493Z,13.18
2018-04-27T03:02:49.511Z,16.23
2018-04-27T03:03:55.787Z,18.85
2018-04-27T03:05:02.683Z,15.55
2018-04-27T03:06:09.975Z,13.15
2018-04-27T03:07:16.279Z,12.93
2018-04-27T03:08:22.585Z,15.13
2018-04-27T03:09:28.893Z,16.27
2018-04-27T03:10:35.141Z,16.27
2018-04-27T03:11:41.328Z,15.45
2018-04-27T03:12:47.604Z,17.20
2018-04-27T03:13:53.912Z,13.70
2018-04-27T03:15:00.131Z,15.10
2018-04-27T03:16:06.174Z,17.10
2018-04-27T03:17:12.467Z,18.23
2018-04-27T03:18:18.758Z,16.98
2018-04-27T03:19:25.014Z,16.90
2018-04-27T03:20:31.316Z,18.17
2018-04-27T03:21:38.870Z,18.20
2018-04-27T03:22:45.947Z,15.25
2018-04-27T03:23:52.159Z,11.88
2018-04-27T03:24:59.199Z,19.52
2018-04-27T03:26:05.051Z,17.75
2018-04-27T03:27:11.304Z,17.02
2018-04-27T03:28:17.554Z,17.33
2018-04-27T03:29:23.843Z,17.30
2018-04-27T03:30:29.809Z,15.10
2018-04-27T03:31:36.167Z,16.95
2018-04-27T03:32:42.474Z,18.10
2018-04-27T03:33:48.789Z,16.05
2018-04-27T03:34:55.111Z,17.12
2018-04-27T03:36:01.391Z,17.05
2018-04-27T03:37:07.593Z,14.82
2018-04-27T03:38:14.580Z,16.48
2018-04-27T03:39:21.688Z,14.35
2018-04-27T03:40:27.969Z,14.77
2018-04-27T03:41:34.296Z,16.80
2018-04-27T03:42:40.623Z,15.07
2018-04-27T03:43:46.895Z,16.05
2018-04-27T03:45:01.669Z,15.55
2018-04-27T03:46:07.963Z,17.00
2018-04-27T03:47:14.221Z,18.12
2018-04-27T03:48:20.445Z,20.30
2018-04-27T03:49:27.331Z,19.33
2018-04-27T03:50:34.512Z,16.73
2018-04-27T03:51:41.123Z,16.50
2018-04-27T03:52:48.111Z,16.85
2018-04-27T03:53:56.358Z,20.65
2018-04-27T03:55:02.579Z,17.73
2018-04-27T03:56:08.855Z,16.55
2018-04-27T03:57:15.195Z,16.10
2018-04-27T03:58:21.484Z,16.60
2018-04-27T03:59:39.697Z,17.60
2018-04-27T04:00:56.690Z,18.20
2018-04-27T04:02:13.752Z,20.62
2018-04-27T04:03:30.908Z,16.35
2018-04-27T04:04:47.971Z,19.37
2018-04-27T04:05:54.055Z,20.17
2018-04-27T04:07:00.288Z,25.42
2018-04-27T04:08:06.471Z,21.62
2018-04-27T04:09:12.802Z,20.12
2018-04-27T04:10:19.200Z,23.80
2018-04-27T04:11:25.446Z,21.85
2018-04-27T04:12:31.793Z,26.20
2018-04-27T04:13:38.056Z,25.45
2018-04-27T04:14:45.241Z,26.50
2018-04-27T04:15:53.295Z,29.25
2018-04-27T04:17:00.607Z,26.87
2018-04-27T04:18:07.710Z,28.95
2018-04-27T04:19:14.046Z,30.60
2018-04-27T04:20:20.848Z,28.80
2018-04-27T04:21:27.886Z,31.48
2018-04-27T04:22:35.581Z,27.23
2018-04-27T04:23:41.782Z,26.48
2018-04-27T04:24:48.019Z,28.58
2018-04-27T04:25:54.379Z,32.17
2018-04-27T04:27:00.666Z,30.50
2018-04-27T04:28:08.534Z,27.77
2018-04-27T04:29:14.799Z,31.00
2018-04-27T04:30:21.006Z,31.60
2018-04-27T04:31:27.227Z,29.92
2018-04-27T04:32:33.544Z,28.08
2018-04-27T04:33:39.868Z,23.27
2018-04-27T04:34:46.158Z,29.10
2018-04-27T04:35:52.462Z,26.85
2018-04-27T04:36:58.819Z,25.37
2018-04-27T04:38:05.104Z,26.85
2018-04-27T04:39:11.268Z,27.00
2018-04-27T04:40:17.495Z,22.40
2018-04-27T04:41:23.696Z,24.27
2018-04-27T04:42:29.987Z,26.60
2018-04-27T04:43:36.236Z,24.83
2018-04-27T04:44:42.463Z,23.85
2018-04-27T04:45:51.547Z,23.25
2018-04-27T04:46:58.103Z,25.50
2018-04-27T04:48:05.072Z,24.77
2018-04-27T04:49:11.517Z,26.65
2018-04-27T04:50:19.623Z,29.23
2018-04-27T04:51:25.931Z,27.40
2018-04-27T04:52:32.314Z,25.75
2018-04-27T04:53:38.663Z,23.92
2018-04-27T04:54:44.636Z,25.05
2018-04-27T04:55:50.872Z,24.60
2018-04-27T04:56:57.141Z,25.17
2018-04-27T04:58:03.168Z,24.65
2018-04-27T04:59:09.427Z,25.00
2018-04-27T05:00:15.646Z,24.67
2018-04-27T05:01:24.466Z,25.58
2018-04-27T05:02:32.204Z,19.60
2018-04-27T05:03:38.233Z,22.40
2018-04-27T05:04:44.462Z,24.85
2018-04-27T05:05:50.508Z,28.52
2018-04-27T05:06:57.335Z,21.30
2018-04-27T05:08:03.606Z,17.83
2018-04-27T05:09:09.896Z,23.33
2018-04-27T05:10:16.290Z,22.23
2018-04-27T05:11:24.550Z,21.12
2018-04-27T05:12:30.783Z,22.62
2018-04-27T05:13:37.013Z,16.73
2018-04-27T05:14:43.309Z,13.15
2018-04-27T05:15:49.678Z,14.38
2018-04-27T05:16:56.971Z,14.25
2018-04-27T05:18:04.249Z,15.57
2018-04-27T05:19:09.583Z,14.43
2018-04-27T05:20:14.679Z,14.50
2018-04-27T05:21:21.001Z,16.60
2018-04-27T05:22:27.287Z,14.98
2018-04-27T05:23:33.297Z,12.10
2018-04-27T05:24:39.281Z,11.90
2018-04-27T05:25:45.127Z,15.25
2018-04-27T05:26:52.071Z,14.55
2018-04-27T05:27:59.472Z,13.30
2018-04-27T05:29:05.112Z,14.93
2018-04-27T05:30:11.341Z,16.73
2018-04-27T05:31:24.888Z,14.00
2018-04-27T05:32:31.977Z,15.50
2018-04-27T05:33:40.004Z,12.15
2018-04-27T05:34:46.646Z,12.32
2018-04-27T05:35:52.830Z,14.00
2018-04-27T05:36:58.071Z,14.52
2018-04-27T05:38:04.380Z,13.07
2018-04-27T05:39:09.998Z,15.60
2018-04-27T05:40:15.926Z,14.87
2018-04-27T05:41:21.550Z,17.80
2018-04-27T05:42:27.080Z,11.50
2018-04-27T05:43:32.323Z,13.95
2018-04-27T05:44:38.542Z,12.25
2018-04-27T05:45:44.697Z,13.45
2018-04-27T05:46:50.313Z,13.45
2018-04-27T05:47:56.049Z,13.10
2018-04-27T05:49:01.653Z,13.82
2018-04-27T05:50:07.488Z,14.52
2018-04-27T05:51:13.904Z,14.23
2018-04-27T05:52:19.907Z,12.57
2018-04-27T05:53:27.164Z,11.15
2018-04-27T05:54:32.979Z,11.88
2018-04-27T05:55:38.683Z,17.58
2018-04-27T05:56:44.667Z,13.98
2018-04-27T05:57:50.927Z,16.70
2018-04-27T05:58:57.734Z,12.48
2018-04-27T06:00:03.665Z,14.35
2018-04-27T06:01:09.608Z,13.02
2018-04-27T06:02:15.817Z,11.65
2018-04-27T06:03:22.060Z,12.45
2018-04-27T06:04:27.733Z,14.07
2018-04-27T06:05:33.599Z,11.40
2018-04-27T06:06:39.484Z,11.52
2018-04-27T06:07:45.795Z,15.57
2018-04-27T06:08:58.455Z,11.90
2018-04-27T06:10:05.635Z,12.75
2018-04-27T06:11:12.159Z,11.55
2018-04-27T06:12:18.360Z,9.95
2018-04-27T06:13:30.763Z,12.65
2018-04-27T06:14:38.151Z,10.73
2018-04-27T06:15:44.652Z,15.52
2018-04-27T06:16:50.879Z,12.27
2018-04-27T06:17:56.763Z,14.55
2018-04-27T06:19:02.405Z,9.93
2018-04-27T06:20:08.697Z,13.05
2018-04-27T06:21:14.918Z,15.10
2018-04-27T06:22:21.091Z,12.10
2018-04-27T06:23:27.006Z,13.80
2018-04-27T06:24:36.229Z,11.45
2018-04-27T06:25:43.273Z,12.88
2018-04-27T06:26:49.439Z,12.37
2018-04-27T06:27:55.882Z,12.15
2018-04-27T06:29:02.208Z,12.05
2018-04-27T06:30:07.815Z,11.73
2018-04-27T06:31:13.784Z,11.10
2018-04-27T06:32:19.519Z,12.27
2018-04-27T06:33:25.785Z,12.30
2018-04-27T06:34:32.141Z,11.32
2018-04-27T06:35:38.018Z,11.85
2018-04-27T06:36:44.270Z,9.13
2018-04-27T06:37:50.497Z,11.55
2018-04-27T06:38:56.743Z,9.20
2018-04-27T06:40:05.222Z,12.02
2018-04-27T06:41:12.421Z,10.98
2018-04-27T06:42:18.637Z,10.40
2018-04-27T06:43:24.659Z,10.40
2018-04-27T06:44:30.255Z,9.18
2018-04-27T06:45:36.799Z,9.30
2018-04-27T06:46:42.334Z,9.70
2018-04-27T06:47:47.864Z,13.43
2018-04-27T06:48:53.786Z,10.73
2018-04-27T06:49:59.338Z,14.00
2018-04-27T06:51:05.590Z,17.05
2018-04-27T06:52:11.855Z,11.52
2018-04-27T06:53:18.190Z,11.43
2018-04-27T06:54:24.523Z,11.60
2018-04-27T06:55:33.146Z,11.23
2018-04-27T06:56:40.207Z,10.48
2018-04-27T06:57:46.158Z,10.65
2018-04-27T06:58:51.688Z,10.15
2018-04-27T07:00:01.353Z,8.13
2018-04-27T07:01:06.772Z,11.60
2018-04-27T07:02:12.555Z,10.05
2018-04-27T07:03:18.166Z,11.60
2018-04-27T07:04:23.941Z,10.95
2018-04-27T07:05:29.331Z,8.27
2018-04-27T07:06:34.942Z,10.07
2018-04-27T07:07:41.395Z,9.73
2018-04-27T07:08:47.892Z,9.93
2018-04-27T07:09:53.134Z,10.55
2018-04-27T07:11:00.035Z,10.77
2018-04-27T07:12:05.258Z,8.80
2018-04-27T07:13:11.332Z,11.27
2018-04-27T07:14:16.882Z,10.73
2018-04-27T07:15:22.357Z,12.32
2018-04-27T07:16:28.555Z,11.77
2018-04-27T07:17:34.866Z,10.48
2018-04-27T07:18:44.747Z,10.05
2018-04-27T07:19:50.722Z,7.68
2018-04-27T07:20:56.962Z,9.82
2018-04-27T07:22:02.804Z,8.77
2018-04-27T07:23:09.079Z,8.82
2018-04-27T07:24:15.419Z,7.93
2018-04-27T07:25:21.328Z,8.50
2018-04-27T07:26:27.578Z,10.27
2018-04-27T07:27:33.836Z,8.73
2018-04-27T07:28:39.818Z,8.70
2018-04-27T07:29:46.663Z,8.80
2018-04-27T07:30:52.617Z,8.88
2018-04-27T07:32:00.355Z,7.70
2018-04-27T07:33:07.540Z,10.27
2018-04-27T07:34:13.592Z,9.57
2018-04-27T07:35:19.703Z,6.22
2018-04-27T07:36:25.858Z,7.62
2018-04-27T07:37:39.631Z,7.85
2018-04-27T07:38:46.111Z,9.02
2018-04-27T07:39:52.338Z,11.38
2018-04-27T07:40:57.874Z,12.88
2018-04-27T07:42:03.124Z,6.55
2018-04-27T07:43:09.152Z,7.47
2018-04-27T07:44:14.751Z,7.82
2018-04-27T07:45:20.631Z,7.53
2018-04-27T07:46:27.255Z,8.82
2018-04-27T07:47:36.129Z,6.28
2018-04-27T07:48:41.908Z,7.80
2018-04-27T07:49:47.801Z,6.20
2018-04-27T07:50:53.042Z,6.87
2018-04-27T07:51:58.527Z,8.38
2018-04-27T07:53:03.981Z,6.25
2018-04-27T07:54:09.493Z,9.50
2018-04-27T07:55:14.916Z,7.40
2018-04-27T07:56:20.679Z,9.07
2018-04-27T07:57:28.220Z,11.20
2018-04-27T07:58:39.962Z,6.47
2018-04-27T07:59:46.497Z,6.60
2018-04-27T08:00:51.978Z,6.00
2018-04-27T08:01:58.347Z,6.75
2018-04-27T08:03:04.945Z,7.95
2018-04-27T08:04:13.319Z,6.78
2018-04-27T08:05:18.361Z,6.32
2018-04-27T08:06:24.270Z,8.27
2018-04-27T08:07:29.753Z,6.62
2018-04-27T08:08:35.233Z,5.37
2018-04-27T08:09:40.895Z,6.25
2018-04-27T08:10:46.115Z,5.28
2018-04-27T08:11:56.539Z,5.75
2018-04-27T08:13:02.899Z,6.65
2018-04-27T08:14:08.461Z,10.13
2018-04-27T08:15:14.808Z,6.70
2018-04-27T08:16:20.149Z,7.22
2018-04-27T08:17:25.428Z,4.80
2018-04-27T08:18:30.718Z,4.95
2018-04-27T08:19:36.400Z,5.12
2018-04-27T08:20:43.342Z,5.20
2018-04-27T08:21:48.988Z,5.82
2018-04-27T08:22:54.211Z,6.50
2018-04-27T08:23:59.955Z,4.90
2018-04-27T08:25:05.355Z,6.00
2018-04-27T08:26:11.496Z,5.45
2018-04-27T08:27:16.766Z,5.15
2018-04-27T08:28:21.993Z,7.05
2018-04-27T08:29:27.534Z,5.82
2018-04-27T08:30:33.257Z,7.47
2018-04-27T08:31:38.793Z,6.10
2018-04-27T08:32:43.991Z,5.82
2018-04-27T08:33:49.578Z,6.25
2018-04-27T08:34:54.875Z,6.55
2018-04-27T08:36:00.794Z,7.22
2018-04-27T08:37:06.993Z,6.40
2018-04-27T08:38:13.187Z,8.88
2018-04-27T08:39:19.406Z,7.05
2018-04-27T08:40:25.651Z,6.90
2018-04-27T08:41:33.660Z,6.45
2018-04-27T08:42:39.893Z,7.05
2018-04-27T08:43:45.836Z,8.50
2018-04-27T08:44:52.666Z,6.50
2018-04-27T08:45:58.851Z,6.90
2018-04-27T08:47:05.013Z,8.20
2018-04-27T08:48:11.520Z,7.53
2018-04-27T08:49:17.419Z,6.25
2018-04-27T08:50:23.736Z,6.20
2018-04-27T08:51:29.354Z,5.37
2018-04-27T08:52:34.867Z,6.82
2018-04-27T08:53:40.407Z,5.90
2018-04-27T08:54:45.950Z,4.87
2018-04-27T08:55:51.520Z,4.87
2018-04-27T08:56:57.139Z,5.45
2018-04-27T08:58:02.527Z,6.03
2018-04-27T08:59:08.103Z,4.60
2018-04-27T09:00:13.365Z,4.57
2018-04-27T09:01:18.611Z,5.20
2018-04-27T09:02:24.798Z,6.72
2018-04-27T09:03:31.150Z,5.35
2018-04-27T09:04:37.195Z,6.60
2018-04-27T09:05:43.166Z,7.15
2018-04-27T09:06:49.607Z,7.95
2018-04-27T09:07:55.655Z,7.85
2018-04-27T09:09:01.299Z,5.57
2018-04-27T09:10:07.485Z,6.53
2018-04-27T09:11:13.347Z,6.55
2018-04-27T09:12:19.542Z,6.93
2018-04-27T09:13:25.706Z,5.65
2018-04-27T09:14:32.884Z,6.03
2018-04-27T09:15:39.094Z,5.32
2018-04-27T09:16:44.962Z,4.62
2018-04-27T09:17:51.200Z,6.00
2018-04-27T09:18:57.246Z,5.28
2018-04-27T09:20:03.431Z,5.75
2018-04-27T09:21:09.414Z,4.90
2018-04-27T09:22:15.633Z,6.07
2018-04-27T09:23:21.800Z,5.55
2018-04-27T09:24:27.622Z,5.85
2018-04-27T09:25:33.561Z,6.57
2018-04-27T09:26:39.382Z,6.50
2018-04-27T09:27:45.577Z,4.60
2018-04-27T09:28:51.801Z,4.45
2018-04-27T09:29:58.682Z,4.60
2018-04-27T09:31:04.497Z,6.43
2018-04-27T09:32:10.294Z,5.95
2018-04-27T09:33:16.093Z,6.03
2018-04-27T09:34:21.908Z,5.07
2018-04-27T09:35:28.126Z,8.70
2018-04-27T09:36:34.357Z,4.60
2018-04-27T09:37:40.556Z,3.70
2018-04-27T09:38:47.938Z,5.37
2018-04-27T09:39:53.756Z,4.32
2018-04-27T09:40:59.508Z,4.37
2018-04-27T09:42:05.494Z,6.57
2018-04-27T09:43:11.964Z,4.65
2018-04-27T09:44:18.542Z,4.93
2018-04-27T09:45:23.844Z,4.32
2018-04-27T09:46:29.427Z,6.15
2018-04-27T09:47:35.265Z,3.65
2018-04-27T09:48:41.124Z,5.18
2018-04-27T09:49:46.874Z,4.45
2018-04-27T09:50:52.371Z,4.80
2018-04-27T09:51:58.037Z,4.68
2018-04-27T09:53:04.094Z,5.72
2018-04-27T09:54:10.284Z,4.00
2018-04-27T09:55:16.501Z,10.93
2018-04-27T09:56:22.137Z,3.80
2018-04-27T09:57:28.355Z,5.93
2018-04-27T09:58:34.785Z,3.22
2018-04-27T09:59:40.087Z,4.68
2018-04-27T10:00:45.959Z,4.30
2018-04-27T10:01:51.657Z,6.20
2018-04-27T10:02:57.236Z,4.15
2018-04-27T10:04:03.050Z,4.50
2018-04-27T10:05:09.897Z,4.32
2018-04-27T10:06:15.535Z,3.58
2018-04-27T10:07:21.093Z,3.70
2018-04-27T10:08:26.898Z,4.35
2018-04-27T10:09:32.758Z,3.75
2018-04-27T10:10:38.633Z,3.72
2018-04-27T10:11:44.539Z,7.82
2018-04-27T10:12:50.770Z,3.50
2018-04-27T10:13:56.990Z,3.50
2018-04-27T10:15:02.880Z,4.35
2018-04-27T10:16:08.924Z,3.62
2018-04-27T10:17:15.184Z,4.72
2018-04-27T10:18:21.641Z,5.22
2018-04-27T10:19:27.138Z,4.40
2018-04-27T10:20:33.086Z,4.55
2018-04-27T10:21:39.454Z,3.15
2018-04-27T10:22:45.682Z,4.47
2018-04-27T10:23:51.535Z,4.12
2018-04-27T10:24:57.741Z,4.35
2018-04-27T10:26:03.594Z,4.68
2018-04-27T10:27:09.834Z,2.50
2018-04-27T10:28:15.867Z,3.95
2018-04-27T10:29:21.784Z,3.83
2018-04-27T10:30:27.691Z,4.40
2018-04-27T10:31:33.910Z,3.12
2018-04-27T10:32:40.110Z,2.25
2018-04-27T10:33:46.328Z,3.55
2018-04-27T10:34:52.579Z,2.45
2018-04-27T10:35:58.795Z,4.10
2018-04-27T10:37:05.038Z,3.85
2018-04-27T10:38:10.925Z,4.97
2018-04-27T10:39:16.410Z,4.75
2018-04-27T10:40:22.312Z,5.93
2018-04-27T10:41:28.503Z,4.15
2018-04-27T10:42:34.054Z,2.22
2018-04-27T10:43:39.554Z,4.22
2018-04-27T10:44:45.454Z,3.40
2018-04-27T10:45:50.943Z,4.35
2018-04-27T10:46:56.445Z,7.12
2018-04-27T10:48:01.966Z,4.05
2018-04-27T10:49:07.529Z,4.75
2018-04-27T10:50:12.883Z,4.32
2018-04-27T10:51:18.516Z,3.05
2018-04-27T10:52:24.043Z,3.25
2018-04-27T10:53:29.551Z,6.20
2018-04-27T10:54:35.183Z,5.20
2018-04-27T10:55:40.486Z,3.40
2018-04-27T10:56:46.442Z,2.40
2018-04-27T10:57:51.993Z,4.78
2018-04-27T10:58:58.207Z,3.80
2018-04-27T11:00:03.721Z,4.12
2018-04-27T11:01:08.712Z,3.12
2018-04-27T11:02:14.367Z,3.00
2018-04-27T11:03:20.042Z,2.83
2018-04-27T11:04:25.718Z,2.70
2018-04-27T11:05:30.902Z,4.53
2018-04-27T11:06:36.209Z,5.18
2018-04-27T11:07:41.724Z,2.75
2018-04-27T11:08:46.952Z,2.65
2018-04-27T11:09:52.509Z,4.45
2018-04-27T11:10:58.408Z,3.62
2018-04-27T11:12:04.060Z,2.47
2018-04-27T11:13:09.093Z,6.00
2018-04-27T11:14:14.572Z,8.85
2018-04-27T11:15:20.051Z,3.30
2018-04-27T11:16:25.566Z,2.92
2018-04-27T11:17:31.079Z,3.53
2018-04-27T11:18:36.616Z,3.85
2018-04-27T11:19:42.103Z,3.70
2018-04-27T11:20:47.731Z,2.12
2018-04-27T11:21:52.962Z,2.78
2018-04-27T11:22:58.593Z,3.70
2018-04-27T11:24:04.442Z,3.42
2018-04-27T11:25:09.743Z,4.75
2018-04-27T11:26:14.947Z,4.43
2018-04-27T11:27:20.475Z,2.58
2018-04-27T11:28:26.715Z,3.20
2018-04-27T11:29:34.098Z,2.87
2018-04-27T11:30:40.358Z,2.65
2018-04-27T11:31:46.657Z,2.20
2018-04-27T11:32:52.551Z,4.70
2018-04-27T11:33:58.759Z,4.15
2018-04-27T11:35:04.277Z,2.70
2018-04-27T11:36:09.852Z,3.22
2018-04-27T11:37:15.420Z,4.03
2018-04-27T11:38:20.977Z,2.95
2018-04-27T11:39:27.134Z,3.45
2018-04-27T11:40:33.418Z,2.47
2018-04-27T11:41:39.242Z,3.60
2018-04-27T11:42:45.476Z,2.17
2018-04-27T11:43:51.324Z,5.43
2018-04-27T11:44:57.223Z,2.28
2018-04-27T11:46:02.992Z,3.12
2018-04-27T11:47:08.892Z,2.70
2018-04-27T11:48:14.433Z,5.30
2018-04-27T11:49:19.931Z,1.70
2018-04-27T11:50:26.974Z,2.35
2018-04-27T11:51:32.275Z,2.90
2018-04-27T11:52:37.568Z,2.45
2018-04-27T11:53:43.358Z,3.70
2018-04-27T11:54:48.923Z,1.90
2018-04-27T11:55:54.571Z,2.60
2018-04-27T11:57:00.034Z,4.55
2018-04-27T11:58:05.528Z,4.10
2018-04-27T11:59:10.889Z,4.47
2018-04-27T12:00:18.115Z,3.33
2018-04-27T12:01:23.400Z,2.28
2018-04-27T12:02:28.929Z,4.53
2018-04-27T12:03:34.294Z,2.97
2018-04-27T12:04:40.555Z,3.05
2018-04-27T12:05:45.817Z,3.40
2018-04-27T12:06:51.357Z,2.97
2018-04-27T12:07:56.893Z,3.05
2018-04-27T12:09:02.457Z,3.05
2018-04-27T12:10:08.850Z,1.37
2018-04-27T12:11:18.895Z,1.35
2018-04-27T12:12:28.749Z,3.03
2018-04-27T12:13:34.341Z,2.25
2018-04-27T12:14:39.892Z,1.95
2018-04-27T12:15:45.415Z,4.50
2018-04-27T12:16:50.971Z,1.70
2018-04-27T12:17:57.701Z,3.20
2018-04-27T12:19:03.277Z,2.35
2018-04-27T12:20:09.558Z,1.65
2018-04-27T12:21:16.009Z,2.37
2018-04-27T12:22:22.244Z,1.90
2018-04-27T12:23:28.530Z,2.72
2018-04-27T12:24:34.741Z,3.55
2018-04-27T12:25:40.656Z,2.15
2018-04-27T12:26:47.051Z,1.45
2018-04-27T12:27:52.957Z,3.00
2018-04-27T12:28:58.837Z,2.30
2018-04-27T12:30:04.713Z,2.05
2018-04-27T12:31:10.958Z,2.22
2018-04-27T12:32:17.378Z,1.37
2018-04-27T12:33:23.616Z,3.15
2018-04-27T12:34:29.858Z,2.15
2018-04-27T12:35:35.783Z,1.55
2018-04-27T12:36:42.348Z,2.22
2018-04-27T12:37:47.956Z,1.55
2018-04-27T12:38:53.616Z,2.00
2018-04-27T12:40:00.419Z,1.52
2018-04-27T12:41:08.041Z,1.52
2018-04-27T12:42:14.412Z,1.65
2018-04-27T12:43:20.502Z,2.37
2018-04-27T12:44:25.814Z,2.03
2018-04-27T12:45:31.072Z,5.12
2018-04-27T12:46:36.594Z,1.65
2018-04-27T12:47:42.548Z,2.05
2018-04-27T12:48:50.458Z,2.12
2018-04-27T12:51:07.639Z,2.25
2018-04-27T12:52:13.279Z,2.45
2018-04-27T12:53:20.440Z,2.67
2018-04-27T12:54:26.136Z,2.45
2018-04-27T12:55:31.412Z,2.83
2018-04-27T12:56:36.994Z,3.53
2018-04-27T12:57:42.782Z,1.95
2018-04-27T12:58:49.024Z,2.33
2018-04-27T12:59:55.284Z,3.30
2018-04-27T13:01:01.498Z,2.47
2018-04-27T13:02:07.354Z,4.15
2018-04-27T13:03:13.245Z,4.72
2018-04-27T13:04:19.572Z,3.12
2018-04-27T13:05:25.138Z,2.90
2018-04-27T13:06:30.686Z,2.65
2018-04-27T13:07:35.950Z,1.60
2018-04-27T13:08:41.544Z,5.55
2018-04-27T13:09:47.086Z,4.50
2018-04-27T13:10:52.679Z,2.45
2018-04-27T13:11:58.255Z,2.30
2018-04-27T13:13:03.789Z,1.40
2018-04-27T13:14:09.366Z,2.12
2018-04-27T13:15:15.294Z,2.60
2018-04-27T13:16:20.818Z,1.85
2018-04-27T13:17:26.491Z,2.85
2018-04-27T13:18:32.089Z,2.58
2018-04-27T13:19:37.731Z,2.90
2018-04-27T13:20:43.950Z,4.03
2018-04-27T13:21:50.173Z,3.65
2018-04-27T13:22:56.411Z,3.15
2018-04-27T13:24:02.672Z,2.92
2018-04-27T13:25:08.940Z,3.65
2018-04-27T13:26:14.860Z,1.65
2018-04-27T13:27:21.154Z,1.40
2018-04-27T13:28:27.467Z,2.03
2018-04-27T13:29:33.685Z,3.80
2018-04-27T13:30:39.235Z,3.10
2018-04-27T13:31:45.679Z,2.60
2018-04-27T13:32:51.905Z,4.85
2018-04-27T13:33:58.175Z,1.40
2018-04-27T13:35:04.197Z,2.17
2018-04-27T13:36:10.418Z,3.62
2018-04-27T13:37:16.574Z,3.97
2018-04-27T13:38:22.758Z,1.60
2018-04-27T13:39:28.391Z,4.15
2018-04-27T13:40:34.583Z,2.47
2018-04-27T13:41:40.828Z,2.22
2018-04-27T13:42:46.986Z,1.75
2018-04-27T13:43:53.213Z,1.87
2018-04-27T13:44:59.421Z,2.12
2018-04-27T13:46:05.708Z,2.97
2018-04-27T13:47:11.616Z,2.12
2018-04-27T13:48:17.823Z,2.22
2018-04-27T13:49:23.345Z,1.98
2018-04-27T13:50:28.851Z,2.90
2018-04-27T13:51:34.821Z,3.00
2018-04-27T13:52:40.491Z,2.05
2018-04-27T13:53:45.787Z,5.35
2018-04-27T13:54:51.302Z,4.55
2018-04-27T13:55:58.557Z,2.60
2018-04-27T13:57:04.077Z,3.37
2018-04-27T13:58:09.591Z,3.40
2018-04-27T13:59:16.099Z,5.57
2018-04-27T14:00:21.701Z,2.10
2018-04-27T14:01:27.725Z,1.40
2018-04-27T14:02:33.255Z,1.87
2018-04-27T14:03:38.744Z,5.72
2018-04-27T14:04:43.985Z,1.87
2018-04-27T14:05:49.509Z,4.15
2018-04-27T14:06:55.376Z,3.05
2018-04-27T14:08:00.902Z,1.65
2018-04-27T14:09:06.185Z,2.47
2018-04-27T14:10:11.705Z,4.78
2018-04-27T14:11:17.228Z,4.00
2018-04-27T14:12:22.942Z,2.42
2018-04-27T14:13:28.241Z,2.85
2018-04-27T14:14:33.793Z,1.75
2018-04-27T14:15:39.095Z,4.28
2018-04-27T14:16:48.280Z,3.85
2018-04-27T14:17:58.344Z,1.83
2018-04-27T14:19:03.627Z,2.87
2018-04-27T14:20:09.166Z,3.15
2018-04-27T14:21:14.726Z,2.45
2018-04-27T14:22:20.982Z,2.97
2018-04-27T14:23:26.956Z,4.35
2018-04-27T14:24:32.622Z,2.03
2018-04-27T14:25:38.969Z,3.55
2018-04-27T14:26:45.049Z,4.15
2018-04-27T14:27:51.419Z,3.72
2018-04-27T14:28:57.355Z,2.50
2018-04-27T14:30:03.054Z,2.47
2018-04-27T14:31:09.338Z,3.40
2018-04-27T14:32:15.788Z,1.48
2018-04-27T14:33:21.999Z,2.00